Time;durP1;ratioP1;P1;durP2;ratioP2;P2;SDS_P1;SDS_P2;PMS_P1;PMS_P2;Temp;Humidity;BMP_temperature;BMP_pressure;BME280_temperature;BME280_humidity;BME280_pressure;Samples;Min_cycle;Max_cycle;Signal;HPM_P1;HPM_P2
2022/08/09 00:00:06;;;;;;;;;;;;;;;20.78;48.37;102632.53;4994689;28;114710;-74
2022/08/09 00:02:38;;;;;;;3.25;2.47;;;;;;;20.78;48.82;102629.84;4985371;28;113736;-74
2022/08/09 00:05:20;;;;;;;3.80;2.20;;;;;;;20.75;49.44;102619.25;4970197;28;123786;-73
2022/08/09 00:08:09;;;;;;;4.80;2.20;;;;;;;20.74;49.31;102620.22;4949780;28;124321;-74
2022/08/09 00:10:40;;;;;;;4.25;2.53;;;;;;;20.72;49.53;102615.88;4967104;28;113636;-74
2022/08/09 00:13:08;;;;;;;8.32;2.83;;;;;;;20.71;49.65;102617.69;4967672;28;114602;-74
2022/08/09 00:15:45;;;;;;;4.75;2.53;;;;;;;20.69;49.58;102616.94;4950929;28;122780;-74
2022/08/09 00:18:30;;;;;;;3.72;2.55;;;;;;;20.67;49.85;102613.47;4936978;28;122521;-74
2022/08/09 00:21:03;;;;;;;3.60;2.53;;;;;;;20.66;49.92;102614.41;4953093;28;114258;-74
2022/08/09 00:23:34;;;;;;;5.93;2.67;;;;;;;20.63;50.03;102625.38;4967475;28;114233;-74
2022/08/09 00:26:21;;;;;;;3.15;2.53;;;;;;;20.61;49.90;102620.09;4966868;28;124150;-74
2022/08/09 00:29:01;;;;;;;5.38;2.55;;;;;;;20.59;50.02;102621.09;4946088;28;123988;-74
2022/08/09 00:31:29;;;;;;;6.35;2.85;;;;;;;20.60;50.23;102617.47;4967478;28;114072;-75
2022/08/09 00:34:17;;;;;;;4.47;2.53;;;;;;;20.56;50.11;102618.59;4954475;28;114524;-74
2022/08/09 00:36:48;;;;;;;3.58;2.42;;;;;;;20.53;50.19;102616.06;4966184;28;123605;-74
2022/08/09 00:39:16;;;;;;;4.43;2.35;;;;;;;20.51;50.21;102612.59;4950974;28;124254;-73
2022/08/09 00:42:04;;;;;;;4.65;2.30;;;;;;;20.49;50.28;102614.50;4952692;28;114471;-73
2022/08/09 00:44:51;;;;;;;6.38;2.45;;;;;;;20.47;50.23;102614.59;4955227;28;113670;-74
2022/08/09 00:47:20;;;;;;;3.78;2.40;;;;;;;20.46;50.30;102606.63;4969294;28;124778;-74
2022/08/09 00:49:54;;;;;;;4.13;2.88;;;;;;;20.43;50.33;102608.53;4965909;28;124020;-74
2022/08/09 00:52:25;;;;;;;5.35;2.65;;;;;;;20.41;50.39;102613.13;4967030;28;115176;-74
2022/08/09 00:54:58;;;;;;;4.90;2.70;;;;;;;20.38;50.48;102617.81;4965875;28;114986;-76
2022/08/09 00:57:28;;;;;;;4.28;2.53;;;;;;;20.35;50.63;102613.50;4968477;28;125125;-74
2022/08/09 01:00:09;;;;;;;3.88;2.80;;;;;;;20.33;50.57;102620.81;4951730;28;124958;-74
2022/08/09 01:02:52;;;;;;;5.07;3.00;;;;;;;20.32;50.46;102610.97;4951782;28;113893;-74
2022/08/09 01:05:40;;;;;;;3.88;3.00;;;;;;;20.29;50.83;102621.09;4967570;28;113707;-74
2022/08/09 01:08:30;;;;;;;6.85;3.08;;;;;;;20.23;51.01;102619.63;4967891;28;123131;-74
2022/08/09 01:11:16;;;;;;;4.72;3.10;;;;;;;20.22;50.73;102623.25;4966894;28;124226;-74
2022/08/09 01:14:08;;;;;;;3.75;2.53;;;;;;;20.19;50.74;102623.41;4950758;28;113403;-74
2022/08/09 01:16:44;;;;;;;4.20;3.08;;;;;;;20.17;50.87;102622.63;4967387;28;113708;-74
2022/08/09 01:19:27;;;;;;;5.32;3.00;;;;;;;20.16;51.00;102624.47;4962458;28;123017;-74
2022/08/09 01:22:27;;;;;;;3.88;3.15;;;;;;;20.13;50.72;102629.16;4963527;28;124871;-74
2022/08/09 01:25:16;;;;;;;6.78;3.20;;;;;;;20.09;50.75;102627.59;4968694;28;114550;-74
2022/08/09 01:27:51;;;;;;;3.25;2.92;;;;;;;20.05;51.29;102623.34;4965419;28;114273;-74
2022/08/09 01:30:21;;;;;;;6.63;3.28;;;;;;;20.02;51.10;102633.34;4970232;28;124105;-74
2022/08/09 01:33:07;;;;;;;3.65;2.97;;;;;;;19.99;51.29;102630.81;4956658;28;123713;-74
2022/08/09 01:35:52;;;;;;;4.65;3.00;;;;;;;19.97;51.26;102626.47;4971055;28;114198;-73
2022/08/09 01:38:25;;;;;;;5.82;3.47;;;;;;;19.95;51.43;102623.88;4932557;28;114063;-74
2022/08/09 01:41:05;;;;;;;5.88;3.70;;;;;;;19.93;51.26;102623.09;4978878;28;124472;-74
2022/08/09 01:43:34;;;;;;;4.90;3.08;;;;;;;19.92;51.42;102618.66;4935849;28;123368;-74
2022/08/09 01:46:23;;;;;;;5.80;3.40;;;;;;;19.90;51.67;102622.38;4969313;28;113550;-74
2022/08/09 01:48:57;;;;;;;5.55;3.10;;;;;;;19.89;51.64;102616.16;4955382;28;115544;-74
2022/08/09 01:51:38;;;;;;;3.97;3.03;;;;;;;19.86;51.75;102616.31;4961412;28;125020;-74
2022/08/09 01:54:21;;;;;;;4.63;3.55;;;;;;;19.83;51.91;102622.75;4966715;28;124023;-74
2022/08/09 01:56:50;;;;;;;5.82;3.35;;;;;;;19.81;51.80;102618.38;4960766;28;115048;-74
2022/08/09 01:59:19;;;;;;;5.68;3.53;;;;;;;19.78;51.84;102613.19;4946143;28;113424;-74
2022/08/09 02:01:53;;;;;;;6.20;3.47;;;;;;;19.77;51.85;102622.19;4969868;28;123280;-73
2022/08/09 02:04:31;;;;;;;3.90;3.50;;;;;;;19.76;52.01;102620.44;4970918;28;123632;-74
2022/08/09 02:07:07;;;;;;;4.57;3.40;;;;;;;19.74;51.94;102622.34;4969277;28;114486;-73
2022/08/09 02:10:05;;;;;;;4.68;3.75;;;;;;;19.72;51.77;102629.63;4952324;28;113903;-73
2022/08/09 02:12:33;;;;;;;7.93;3.90;;;;;;;19.70;51.85;102626.16;4952068;28;124159;-73
2022/08/09 02:15:03;;;;;;;7.72;4.57;;;;;;;19.67;51.92;102626.34;4968662;28;124179;-73
2022/08/09 02:17:37;;;;;;;6.53;3.90;;;;;;;19.63;51.82;102634.56;4968766;28;115049;-73
2022/08/09 02:20:27;;;;;;;5.55;3.67;;;;;;;19.57;51.82;102626.84;4939807;28;113863;-73
2022/08/09 02:23:06;;;;;;;6.00;3.67;;;;;;;19.54;52.00;102635.06;4953360;28;123807;-73
2022/08/09 02:25:37;;;;;;;6.70;4.05;;;;;;;19.53;52.14;102641.38;4952668;28;123086;-73
2022/08/09 02:28:20;;;;;;;6.18;3.55;;;;;;;19.51;52.18;102637.91;4968980;28;113152;-73
2022/08/09 02:30:56;;;;;;;7.38;3.63;;;;;;;19.49;52.29;102629.06;4969360;28;113860;-73
2022/08/09 02:33:27;;;;;;;6.05;3.95;;;;;;;19.45;52.24;102630.19;4969487;28;124799;-74
2022/08/09 02:36:10;;;;;;;5.65;3.80;;;;;;;19.39;52.39;102622.44;4950726;28;122326;-73
2022/08/09 02:38:53;;;;;;;6.95;4.50;;;;;;;19.33;52.42;102633.53;4967559;28;115148;-73
2022/08/09 02:41:30;;;;;;;4.35;3.67;;;;;;;19.30;52.76;102628.31;4967640;28;114210;-73
2022/08/09 02:44:06;;;;;;;7.13;4.03;;;;;;;19.24;52.80;102625.00;4968361;28;122414;-73
2022/08/09 02:46:57;;;;;;;5.95;3.90;;;;;;;19.20;52.82;102628.81;4963335;28;123932;-73
2022/08/09 02:49:24;;;;;;;6.28;4.13;;;;;;;19.17;53.38;102626.28;4969210;28;114147;-73
2022/08/09 02:52:08;;;;;;;7.47;4.30;;;;;;;19.15;53.25;102630.00;4969048;28;113023;-73
2022/08/09 02:54:37;;;;;;;7.75;4.35;;;;;;;19.13;53.31;102621.16;4952479;28;124043;-74
2022/08/09 02:57:21;;;;;;;5.63;4.22;;;;;;;19.11;53.31;102618.53;4968034;28;123680;-73
2022/08/09 02:59:53;;;;;;;5.25;4.18;;;;;;;19.10;53.16;102613.25;4968654;28;114082;-73
2022/08/09 03:02:45;;;;;;;8.88;4.80;;;;;;;19.07;53.29;102611.59;4951572;28;113384;-73
2022/08/09 03:05:26;;;;;;;;;;;;;;;19.03;52.46;102618.09;4953258;28;123697;-74
2022/08/09 03:07:54;;;;;;;6.68;4.13;;;;;;;19.04;52.87;102619.81;4951636;28;125453;-73
2022/08/09 03:10:24;;;;;;;8.48;4.20;;;;;;;19.03;53.38;102615.41;4970029;28;114218;-74
2022/08/09 03:12:52;;;;;;;6.20;4.28;;;;;;;19.03;53.41;102620.78;4935522;28;112948;-73
2022/08/09 03:15:21;;;;;;;7.45;4.78;;;;;;;19.01;53.64;102614.63;4969205;28;123970;-74
2022/08/09 03:17:50;;;;;;;6.47;5.10;;;;;;;18.99;53.84;102619.22;4966899;28;125562;-73
2022/08/09 03:20:26;;;;;;;6.80;4.55;;;;;;;18.99;53.86;102619.22;4951365;28;113792;-74
2022/08/09 03:22:57;;;;;;;7.95;4.68;;;;;;;18.98;53.91;102612.94;4968386;28;114151;-73
2022/08/09 03:25:42;;;;;;;7.28;4.72;;;;;;;18.97;53.95;102613.06;4951595;28;124005;-73
2022/08/09 03:28:31;;;;;;;7.05;4.70;;;;;;;18.95;53.93;102612.22;4967148;28;123900;-73
2022/08/09 03:30:59;;;;;;;6.70;5.03;;;;;;;18.94;53.97;102611.38;4964252;28;113191;-73
2022/08/09 03:33:37;;;;;;;7.55;4.80;;;;;;;18.94;53.88;102611.38;4961238;28;114509;-73
2022/08/09 03:36:23;;;;;;;5.82;4.40;;;;;;;18.92;54.10;102618.66;4939328;28;123442;-73
2022/08/09 03:38:55;;;;;;;7.82;4.78;;;;;;;18.91;54.19;102616.03;4966353;28;123650;-73
2022/08/09 03:41:23;;;;;;;9.15;4.53;;;;;;;18.88;54.12;102617.06;4918301;28;113630;-73
2022/08/09 03:43:56;;;;;;;9.02;4.60;;;;;;;18.85;54.16;102618.09;4940895;28;114056;-73
2022/08/09 03:46:35;;;;;;;8.55;5.07;;;;;;;18.83;54.30;102624.50;4954809;28;123914;-73
2022/08/09 03:49:04;;;;;;;6.38;4.90;;;;;;;18.80;54.33;102630.91;4951394;28;123199;-73
2022/08/09 03:51:38;;;;;;;7.15;4.88;;;;;;;18.77;54.55;102630.16;4965867;28;114051;-74
2022/08/09 03:54:29;;;;;;;6.93;5.25;;;;;;;18.75;54.74;102624.84;4950363;28;111844;-73
2022/08/09 03:57:03;;;;;;;6.72;4.82;;;;;;;18.74;54.49;102627.59;4975585;28;124375;-73
2022/08/09 03:59:52;;;;;;;8.48;4.95;;;;;;;18.73;54.37;102618.69;4949862;28;123064;-73
2022/08/09 04:02:27;;;;;;;7.40;5.05;;;;;;;18.72;54.55;102622.31;4950399;28;113257;-73
2022/08/09 04:04:57;;;;;;;8.48;5.40;;;;;;;18.72;54.51;102625.00;4967962;28;113802;-73
2022/08/09 04:07:28;;;;;;;7.70;5.10;;;;;;;18.69;54.53;102622.50;4950128;28;123576;-73
2022/08/09 04:10:14;;;;;;;10.88;5.13;;;;;;;18.66;54.61;102628.00;4965791;28;122909;-73
2022/08/09 04:12:49;;;;;;;8.32;4.80;;;;;;;18.64;54.71;102629.91;4948095;28;113420;-74
2022/08/09 04:15:19;;;;;;;9.18;5.10;;;;;;;18.63;54.81;102626.34;4951555;28;112815;-73
2022/08/09 04:18:07;;;;;;;8.52;4.90;;;;;;;18.64;54.62;102621.84;4950508;28;123677;-73
2022/08/09 04:20:34;;;;;;;7.63;4.93;;;;;;;18.63;54.95;102625.50;4956325;28;123447;-74
2022/08/09 04:23:02;;;;;;;6.07;4.85;;;;;;;18.63;54.88;102625.50;4968074;28;115007;-73
2022/08/09 04:25:36;;;;;;;6.85;5.25;;;;;;;18.65;54.90;102628.97;4951433;28;115370;-73
2022/08/09 04:28:03;;;;;;;7.93;5.28;;;;;;;18.66;55.05;102622.63;4943757;28;124543;-74
2022/08/09 04:30:31;;;;;;;7.68;4.95;;;;;;;18.66;54.89;102633.38;4950892;28;123922;-73
2022/08/09 04:33:01;;;;;;;6.57;5.13;;;;;;;18.65;55.03;102632.50;4953651;28;113700;-74
2022/08/09 04:35:28;;;;;;;7.57;5.25;;;;;;;18.63;54.84;102638.91;4950347;28;115311;-74
2022/08/09 04:37:59;;;;;;;9.65;5.43;;;;;;;18.61;54.84;102635.41;4953138;28;123682;-74
2022/08/09 04:40:47;;;;;;;6.95;5.15;;;;;;;18.59;54.81;102648.03;4968824;28;123795;-73
2022/08/09 04:43:20;;;;;;;7.53;5.55;;;;;;;18.61;54.66;102640.78;4956002;28;114201;-73
2022/08/09 04:45:47;;;;;;;10.27;5.38;;;;;;;18.61;54.92;102646.13;4968314;28;113131;-73
2022/08/09 04:48:20;;;;;;;7.35;5.32;;;;;;;18.58;55.10;102649.00;4974234;28;123930;-73
2022/08/09 04:50:49;;;;;;;8.45;5.80;;;;;;;18.58;55.25;102647.19;4991820;28;124609;-73
2022/08/09 04:53:17;;;;;;;7.57;5.22;;;;;;;18.61;55.33;102656.88;4974385;28;114094;-73
2022/08/09 04:55:44;;;;;;;9.98;5.70;;;;;;;18.59;55.13;102656.97;4992589;28;115319;-73
2022/08/09 04:58:26;;;;;;;7.88;4.90;;;;;;;18.62;55.24;102658.63;4985266;28;123391;-73
2022/08/09 05:00:54;;;;;;;11.10;6.13;;;;;;;18.62;55.24;102658.63;4964558;28;123330;-73
2022/08/09 05:03:22;;;;;;;9.43;5.50;;;;;;;18.65;55.29;102669.22;4974553;28;112896;-73
2022/08/09 05:06:12;;;;;;;8.15;5.55;;;;;;;18.67;55.47;102662.81;4970989;28;114012;-73
2022/08/09 05:08:54;;;;;;;8.68;5.22;;;;;;;18.68;55.50;102667.25;4953496;28;123944;-74
2022/08/09 05:11:29;;;;;;;10.27;6.07;;;;;;;18.71;55.68;102668.91;4970014;28;122780;-73
2022/08/09 05:14:04;;;;;;;8.77;5.70;;;;;;;18.74;55.91;102660.72;4971971;28;115789;-73
2022/08/09 05:16:33;;;;;;;10.23;5.93;;;;;;;18.76;55.80;102666.88;4972637;28;114687;-74
2022/08/09 05:19:21;;;;;;;8.98;5.85;;;;;;;18.78;56.28;102670.34;4969090;28;123258;-74
2022/08/09 05:21:57;;;;;;;8.77;6.20;;;;;;;18.81;56.00;102672.88;4942693;28;123074;-73
2022/08/09 05:24:26;;;;;;;9.85;6.32;;;;;;;18.82;56.16;102671.94;4971362;28;114642;-74
2022/08/09 05:26:53;;;;;;;10.45;6.30;;;;;;;18.84;56.48;102670.06;4971082;28;115053;-74
2022/08/09 05:29:21;;;;;;;11.65;6.25;;;;;;;18.88;56.67;102680.66;4970631;28;124352;-74
2022/08/09 05:32:00;;;;;;;9.50;6.00;;;;;;;18.91;56.71;102680.47;4968651;28;123244;-73
2022/08/09 05:34:30;;;;;;;11.77;6.60;;;;;;;18.95;56.67;102676.69;4971575;28;114643;-73
2022/08/09 05:37:00;;;;;;;11.40;6.20;;;;;;;18.98;56.87;102682.75;4935601;28;113628;-73
2022/08/09 05:39:37;;;;;;;8.57;6.22;;;;;;;19.04;56.90;102670.84;4949186;28;123327;-74
2022/08/09 05:42:12;;;;;;;11.38;6.93;;;;;;;19.08;57.03;102672.44;4967971;28;123947;-73
2022/08/09 05:44:52;;;;;;;9.95;6.28;;;;;;;19.12;57.06;102679.38;4968513;28;115045;-74
2022/08/09 05:47:21;;;;;;;10.80;6.47;;;;;;;19.18;57.10;102684.44;4948277;28;112705;-74
2022/08/09 05:49:51;;;;;;;10.52;6.43;;;;;;;19.22;57.02;102675.25;4967879;28;123994;-74
2022/08/09 05:52:39;;;;;;;10.43;6.22;;;;;;;19.30;57.02;102676.69;4953405;28;124519;-74
2022/08/09 05:55:09;;;;;;;10.45;6.88;;;;;;;19.35;57.14;102674.63;4953853;28;112162;-73
2022/08/09 05:57:48;;;;;;;10.88;6.47;;;;;;;19.40;57.19;102675.22;4970646;28;113495;-74
2022/08/09 06:00:25;;;;;;;10.32;6.55;;;;;;;19.45;57.09;102675.88;4969740;28;123262;-74
2022/08/09 06:02:56;;;;;;;9.60;6.35;;;;;;;19.51;57.21;102680.91;4969609;28;123747;-74
2022/08/09 06:05:26;;;;;;;9.82;6.57;;;;;;;19.57;57.21;102677.91;4954207;28;114297;-74
2022/08/09 06:08:13;;;;;;;11.02;6.53;;;;;;;19.62;57.19;102678.50;4954253;28;114439;-74
2022/08/09 06:10:45;;;;;;;9.32;6.28;;;;;;;19.70;57.13;102685.28;4952727;28;124108;-74
2022/08/09 06:13:13;;;;;;;9.63;6.15;;;;;;;19.76;57.19;102690.34;4953300;28;122687;-74
2022/08/09 06:15:50;;;;;;;12.52;6.72;;;;;;;19.82;57.43;102693.59;4950914;28;114270;-73
2022/08/09 06:18:20;;;;;;;10.13;6.13;;;;;;;19.89;57.40;102691.44;4941463;28;113823;-74
2022/08/09 06:20:53;;;;;;;9.45;5.68;;;;;;;19.98;57.19;102690.91;4956048;28;123775;-74
2022/08/09 06:23:26;;;;;;;10.43;6.32;;;;;;;20.08;57.19;102701.16;4970980;28;122757;-73
2022/08/09 06:26:15;;;;;;;9.30;6.25;;;;;;;20.17;57.19;102700.66;4960471;28;114446;-74
2022/08/09 06:28:53;;;;;;;7.05;5.68;;;;;;;20.26;56.98;102694.75;4984853;28;114168;-73
2022/08/09 06:31:31;;;;;;;8.32;5.60;;;;;;;20.37;56.81;102697.72;4988391;28;124632;-73
2022/08/09 06:34:20;;;;;;;8.80;5.47;;;;;;;20.48;56.90;102698.94;4973225;28;123098;-74
2022/08/09 06:36:50;;;;;;;9.80;6.00;;;;;;;20.59;56.78;102701.88;4979850;28;114658;-74
2022/08/09 06:39:27;;;;;;;9.63;5.05;;;;;;;20.70;56.75;102698.56;4970095;28;114369;-74
2022/08/09 06:42:21;;;;;;;9.32;5.47;;;;;;;20.82;56.40;102703.25;4953897;28;123545;-74
2022/08/09 06:44:55;;;;;;;8.40;5.10;;;;;;;20.93;56.18;102697.25;4968625;28;122923;-74
2022/08/09 06:47:23;;;;;;;9.88;5.30;;;;;;;21.04;56.21;102705.53;4969203;28;113518;-74
2022/08/09 06:49:56;;;;;;;7.80;5.10;;;;;;;21.16;56.16;102701.25;4968964;28;114150;-74
2022/08/09 06:52:45;;;;;;;9.45;5.40;;;;;;;21.32;55.94;102709.25;4952072;28;123395;-74
2022/08/09 06:55:20;;;;;;;8.95;5.15;;;;;;;21.46;55.53;102706.63;4968569;28;122768;-74
2022/08/09 06:57:50;;;;;;;8.27;4.80;;;;;;;21.58;55.42;102708.53;4935372;28;114667;-74
2022/08/09 07:00:34;;;;;;;7.63;4.80;;;;;;;21.72;55.30;102709.53;4958363;28;114494;-74
2022/08/09 07:03:23;;;;;;;7.55;5.03;;;;;;;21.87;55.39;102708.56;4951894;28;123579;-74
2022/08/09 07:05:54;;;;;;;6.28;4.85;;;;;;;22.05;54.87;102711.03;4951521;28;124302;-74
2022/08/09 07:08:30;;;;;;;8.20;4.95;;;;;;;22.23;54.76;102720.66;4967107;28;113614;-74
2022/08/09 07:10:57;;;;;;;7.13;5.00;;;;;;;22.39;54.37;102719.69;4951669;28;113329;-74
2022/08/09 07:13:25;;;;;;;8.45;5.07;;;;;;;22.52;54.05;102728.72;4951938;28;123470;-74
2022/08/09 07:15:56;;;;;;;5.75;4.63;;;;;;;22.65;53.81;102726.94;4967900;28;123226;-74
2022/08/09 07:18:43;;;;;;;8.75;4.82;;;;;;;22.81;53.60;102721.41;4969198;28;114317;-74
2022/08/09 07:21:16;;;;;;;6.30;4.72;;;;;;;22.97;53.60;102718.50;4951932;28;112885;-74
2022/08/09 07:23:45;;;;;;;7.32;4.47;;;;;;;23.13;53.25;102716.53;4967855;28;123720;-74
2022/08/09 07:26:24;;;;;;;6.53;4.72;;;;;;;23.29;52.83;102720.88;4968247;28;123984;-74
2022/08/09 07:28:51;;;;;;;7.40;4.55;;;;;;;23.40;52.95;102712.88;4969746;28;114545;-74
2022/08/09 07:31:39;;;;;;;6.13;3.95;;;;;;;23.56;52.45;102722.59;4967417;28;114141;-74
2022/08/09 07:34:14;;;;;;;6.63;4.80;;;;;;;23.68;51.75;102716.34;4951319;28;122851;-74
2022/08/09 07:36:49;;;;;;;6.38;4.30;;;;;;;23.76;51.55;102724.78;4958899;28;124555;-74
2022/08/09 07:39:20;;;;;;;6.25;4.25;;;;;;;23.85;51.37;102729.56;4971486;28;114099;-74
2022/08/09 07:42:07;;;;;;;5.35;4.47;;;;;;;23.97;51.17;102716.13;4964848;28;113336;-74
2022/08/09 07:44:35;;;;;;;8.00;4.40;;;;;;;24.05;50.80;102719.13;4965500;28;123801;-74
2022/08/09 07:47:21;;;;;;;6.57;4.10;;;;;;;24.13;50.58;102711.34;4968418;28;122897;-74
2022/08/09 07:49:50;;;;;;;4.85;3.97;;;;;;;24.20;50.08;102709.88;4934636;28;114673;-74
2022/08/09 07:52:35;;;;;;;6.15;4.43;;;;;;;24.25;50.06;102720.38;4969728;28;115547;-74
2022/08/09 07:55:03;;;;;;;7.60;4.60;;;;;;;24.33;49.97;102722.53;4951423;28;123845;-74
2022/08/09 07:57:37;;;;;;;6.50;3.70;;;;;;;24.44;50.36;102730.72;4966958;28;124295;-74
2022/08/09 08:00:18;;;;;;;7.90;3.80;;;;;;;24.56;49.70;102727.13;4952466;28;115331;-74
2022/08/09 08:03:03;;;;;;;6.28;3.95;;;;;;;24.71;49.44;102727.81;4969644;28;114366;-74
2022/08/09 08:05:31;;;;;;;7.47;3.83;;;;;;;24.79;49.48;102725.41;4969238;28;124227;-74
2022/08/09 08:08:18;;;;;;;5.97;3.70;;;;;;;24.90;48.78;102738.13;4944013;28;123300;-74
2022/08/09 08:11:05;;;;;;;7.22;4.15;;;;;;;24.98;48.81;102735.72;4970446;28;113334;-74
2022/08/09 08:13:52;;;;;;;5.43;3.42;;;;;;;25.09;48.89;102729.47;4952681;28;113514;-75
2022/08/09 08:16:22;;;;;;;7.07;3.67;;;;;;;25.19;48.31;102737.75;4949986;28;121875;-74
2022/08/09 08:18:58;;;;;;;6.18;3.33;;;;;;;25.27;48.06;102740.75;4940537;28;122628;-75
2022/08/09 08:21:30;;;;;;;4.85;3.00;;;;;;;25.33;47.77;102736.69;4965344;28;113463;-74
2022/08/09 08:23:57;;;;;;;5.75;3.70;;;;;;;25.41;47.83;102737.84;4968361;28;113730;-75
2022/08/09 08:26:37;;;;;;;4.93;3.30;;;;;;;25.47;47.13;102724.75;4968578;28;124458;-74
2022/08/09 08:29:25;;;;;;;5.63;3.30;;;;;;;25.57;47.84;102720.34;4937203;28;123097;-74
2022/08/09 08:31:55;;;;;;;4.95;3.33;;;;;;;25.71;47.61;102711.97;4951092;28;112867;-75
2022/08/09 08:34:32;;;;;;;5.38;3.38;;;;;;;25.81;46.77;102707.53;4950904;28;113678;-75
2022/08/09 08:37:03;;;;;;;6.50;3.20;;;;;;;25.90;47.06;102715.91;4938213;28;123634;-75
2022/08/09 08:39:31;;;;;;;5.80;3.63;;;;;;;26.01;46.43;102718.66;4967603;28;123776;-75
2022/08/09 08:42:09;;;;;;;5.70;3.10;;;;;;;26.12;46.34;102721.34;4952322;28;114724;-76
2022/08/09 08:44:37;;;;;;;8.48;3.00;;;;;;;26.21;46.48;102728.75;4971131;28;115532;-75
2022/08/09 08:47:06;;;;;;;5.65;3.35;;;;;;;26.31;46.05;102728.00;4953422;28;124522;-75
2022/08/09 08:49:40;;;;;;;4.68;3.25;;;;;;;26.36;46.17;102723.06;4967264;28;123745;-75
2022/08/09 08:52:16;;;;;;;4.82;3.10;;;;;;;26.43;45.27;102729.72;4966059;28;113442;-75
2022/08/09 08:55:03;;;;;;;3.83;3.05;;;;;;;26.47;45.25;102714.88;4969548;28;113101;-75
2022/08/09 08:57:32;;;;;;;5.13;3.00;;;;;;;26.53;45.05;102730.66;4970008;28;123645;-76
2022/08/09 09:00:04;;;;;;;3.85;2.85;;;;;;;26.56;44.69;102730.41;4969294;28;124301;-76
2022/08/09 09:02:48;;;;;;;3.80;2.50;;;;;;;26.58;44.49;102728.44;4969577;28;114450;-75
2022/08/09 09:05:24;;;;;;;3.85;2.53;;;;;;;26.61;44.30;102739.06;4968229;28;114404;-75
2022/08/09 09:08:13;;;;;;;5.75;3.10;;;;;;;26.67;44.64;102742.25;4950384;28;123713;-75
2022/08/09 09:11:04;;;;;;;3.92;2.75;;;;;;;26.75;44.66;102735.19;4949742;28;123628;-75
2022/08/09 09:13:42;;;;;;;5.85;2.88;;;;;;;26.83;44.05;102748.13;4970566;28;114785;-76
2022/08/09 09:16:33;;;;;;;5.13;2.80;;;;;;;26.91;43.77;102750.22;4965571;28;114663;-76
2022/08/09 09:19:04;;;;;;;4.65;3.00;;;;;;;26.97;43.59;102750.56;4961754;28;123992;-76
2022/08/09 09:21:58;;;;;;;4.35;2.53;;;;;;;27.04;43.54;102744.59;4971196;28;122788;-75
2022/08/09 09:24:29;;;;;;;4.72;2.80;;;;;;;27.10;43.41;102738.63;4966904;28;115036;-75
2022/08/09 09:26:59;;;;;;;3.08;2.28;;;;;;;27.17;42.94;102745.25;4970954;28;113788;-75
2022/08/09 09:29:36;;;;;;;5.28;2.38;;;;;;;27.18;42.47;102739.69;4938344;28;123440;-75
2022/08/09 09:32:25;;;;;;;4.57;2.40;;;;;;;27.17;42.82;102745.25;4968736;28;124031;-75
2022/08/09 09:35:09;;;;;;;3.90;2.05;;;;;;;27.19;42.84;102743.28;4913002;28;1118370;-75
2022/08/09 09:37:39;;;;;;;3.28;2.13;;;;;;;27.25;42.56;102737.31;4969508;28;114766;-75
2022/08/09 09:40:08;;;;;;;2.85;1.63;;;;;;;27.31;42.29;102731.38;4971773;28;123866;-75
2022/08/09 09:42:37;;;;;;;4.72;1.65;;;;;;;27.36;42.13;102734.53;4967922;28;122558;-75
2022/08/09 09:45:06;;;;;;;4.45;2.22;;;;;;;27.43;42.12;102734.03;4957963;28;113325;-75
2022/08/09 09:47:34;;;;;;;2.95;1.95;;;;;;;27.46;41.62;102728.28;4971074;28;114078;-75
2022/08/09 09:50:39;;;;;;;5.00;1.80;;;;;;;27.55;41.99;102732.94;4950386;28;123619;-75
2022/08/09 09:53:19;;;;;;;4.40;2.10;;;;;;;27.63;41.71;102730.38;4968365;28;123401;-75
2022/08/09 09:55:58;;;;;;;4.72;2.08;;;;;;;27.67;41.46;102730.97;4969686;28;114228;-75
2022/08/09 09:58:45;;;;;;;;;;;;;;;27.70;42.54;102731.56;4972340;28;113138;-75
2022/08/09 10:01:21;;;;;;;2.63;1.60;;;;;;;27.77;41.39;102732.75;4969998;28;123336;-75
2022/08/09 10:04:12;;;;;;;2.38;1.65;;;;;;;27.82;41.00;102734.19;4962501;28;122871;-75
2022/08/09 10:06:49;;;;;;;2.63;1.60;;;;;;;27.85;40.76;102728.50;4962070;28;114115;-75
2022/08/09 10:09:20;;;;;;;4.40;1.75;;;;;;;27.88;40.71;102733.69;4969515;28;113621;-75
2022/08/09 10:12:01;;;;;;;3.60;1.30;;;;;;;27.92;40.69;102730.56;4970939;28;124008;-75
2022/08/09 10:14:49;;;;;;;3.72;1.27;;;;;;;27.98;40.57;102729.16;4952722;28;123461;-76
2022/08/09 10:17:18;;;;;;;9.02;1.60;;;;;;;28.05;40.13;102729.44;4964995;28;114795;-73
2022/08/09 10:20:27;;;;;;;2.78;1.55;;;;;;;28.05;39.97;102724.00;4965417;28;112687;-73
2022/08/09 10:23:18;;;;;;;3.50;1.50;;;;;;;28.07;40.31;102722.88;4968922;28;123854;-73
2022/08/09 10:25:50;;;;;;;2.28;1.23;;;;;;;28.11;40.20;102729.75;4968559;28;123806;-73
2022/08/09 10:28:35;;;;;;;3.05;1.30;;;;;;;28.19;39.85;102720.03;4966181;28;115061;-74
2022/08/09 10:31:03;;;;;;;2.25;1.20;;;;;;;28.24;39.59;102732.25;4950053;28;113777;-74
2022/08/09 10:33:51;;;;;;;2.17;1.30;;;;;;;28.32;39.42;102713.31;4947758;28;124448;-74
2022/08/09 10:36:39;;;;;;;2.40;1.13;;;;;;;28.42;39.38;102716.06;4950566;28;124478;-73
2022/08/09 10:39:09;;;;;;;1.92;1.02;;;;;;;28.51;38.54;102715.22;4965956;28;114853;-74
2022/08/09 10:41:45;;;;;;;2.08;1.30;;;;;;;28.54;38.71;102720.41;4969109;28;113167;-74
2022/08/09 10:44:19;;;;;;;2.63;1.38;;;;;;;28.59;38.77;102716.41;4968468;28;125011;-74
2022/08/09 10:47:04;;;;;;;;;;;;;;;28.61;39.65;102708.94;4944457;28;123937;-74
2022/08/09 10:50:10;;;;;;;1.95;1.27;;;;;;;28.67;38.77;102692.00;4952460;28;114704;-74
2022/08/09 10:53:01;;;;;;;2.97;1.35;;;;;;;28.70;38.58;102713.53;4969861;28;113657;-74
2022/08/09 10:55:31;;;;;;;3.90;1.10;;;;;;;28.74;38.77;102698.59;4967592;28;123317;-74
2022/08/09 10:58:32;;;;;;;1.48;1.00;;;;;;;28.81;38.65;102686.13;4968219;28;123985;-74
2022/08/09 11:01:01;;;;;;;2.03;1.00;;;;;;;28.90;38.27;102703.50;4968324;28;114214;-74
2022/08/09 11:04:07;;;;;;;2.35;1.20;;;;;;;28.98;38.30;102689.13;4970285;28;114154;-74
2022/08/09 11:06:57;;;;;;;2.17;1.42;;;;;;;29.06;37.45;102697.44;4955759;28;122769;-74
2022/08/09 11:09:41;;;;;;;2.72;1.30;;;;;;;29.10;37.26;102687.94;4967740;28;123425;-74
2022/08/09 11:12:16;;;;;;;3.17;1.23;;;;;;;29.11;37.59;102689.69;4968133;28;113600;-75
2022/08/09 11:14:49;;;;;;;1.73;1.00;;;;;;;29.17;37.39;102691.84;4969439;28;113831;-75
2022/08/09 11:17:17;;;;;;;1.50;1.00;;;;;;;29.23;37.09;102693.97;4952111;28;123202;-75
2022/08/09 11:19:54;;;;;;;2.67;1.20;;;;;;;29.26;37.29;102699.16;4968361;28;124362;-75
2022/08/09 11:22:42;;;;;;;2.75;1.30;;;;;;;29.31;36.92;102696.84;4960207;28;115556;-75
2022/08/09 11:25:20;;;;;;;3.20;1.10;;;;;;;29.33;36.92;102690.38;4967715;28;114100;-75
2022/08/09 11:27:53;;;;;;;2.55;1.45;;;;;;;29.38;36.73;102696.25;4967651;28;124270;-75
2022/08/09 11:30:40;;;;;;;2.70;1.35;;;;;;;29.40;36.72;102689.63;4967097;28;123994;-75
2022/08/09 11:33:17;;;;;;;1.58;1.10;;;;;;;29.42;36.42;102681.28;4968326;28;114511;-76
2022/08/09 11:35:46;;;;;;;1.42;1.20;;;;;;;29.43;36.39;102683.03;4967346;28;113895;-75
2022/08/09 11:38:20;;;;;;;2.27;1.07;;;;;;;29.47;36.42;102679.81;4951643;28;123904;-74
2022/08/09 11:41:10;;;;;;;1.42;1.08;;;;;;;29.53;36.12;102672.91;4966714;28;123965;-75
2022/08/09 11:43:42;;;;;;;2.17;1.13;;;;;;;29.61;36.13;102675.78;4968919;28;114727;-75
2022/08/09 11:46:09;;;;;;;1.70;1.00;;;;;;;29.66;35.93;102670.69;4967025;28;113373;-75
2022/08/09 11:48:54;;;;;;;2.20;1.15;;;;;;;29.67;35.60;102672.44;4968420;28;125004;-75
2022/08/09 11:51:24;;;;;;;2.50;1.02;;;;;;;29.68;35.71;102665.94;4951149;28;123555;-75
2022/08/09 11:54:16;;;;;;;2.55;1.10;;;;;;;29.74;34.90;102658.19;4968728;28;114159;-75
2022/08/09 11:57:33;;;;;;;3.17;0.93;;;;;;;29.81;35.42;102672.97;4969282;28;114107;-74
2022/08/09 12:00:21;;;;;;;1.90;1.10;;;;;;;29.87;35.39;102666.88;4967583;28;124148;-74
2022/08/09 12:02:55;;;;;;;2.65;1.00;;;;;;;29.94;35.46;102665.28;4950112;28;123033;-75